Change the Weather History Date:

Sunday, November 17, 2013

  Actual Average Record
Temperature  
Mean Temperature 42 °F -  
Max Temperature 57 °F 52 °F 80 °F (1999)
Min Temperature 28 °F 28 °F 10 °F (2014)
Degree Days  
Heating Degree Days 22    
Moisture  
Dew Point 21 °F    
Average Humidity 41    
Maximum Humidity 66    
Minimum Humidity 16    
Precipitation  
Precipitation 0.00 in - - ()
Sea Level Pressure  
Sea Level Pressure 29.78 in    
Wind  
Wind Speed 18 mph (WNW)    
Max Wind Speed 41 mph    
Max Gust Speed 54 mph    
Visibility 10 miles    
Events      
Averages and records for this station are not official NWS values.
T = Trace of Precipitation, MM = Missing Value Source: NWS Daily Summary

Daily Weather History Graph

Daily Weather History Graph

Search for Another Location

Airport or City:

Trip Planner

Search our weather history database for the weather conditions in past years. The results will help you decide how hot, cold, wet, or windy it might be!

Date:

Astronomy

Nov. 17, 2013 Rise Set
Actual Time 7:22 AM CST 5:21 PM CST
Civil Twilight 6:53 AM CST 5:50 PM CST
Nautical Twilight 6:21 AM CST 6:22 PM CST
Astronomical Twilight 5:49 AM CST 6:54 PM CST
Moon 5:39 PM CST (11/17) 7:17 AM CST (11/17)
Length of Visible Light 10h 56m
Length of Day
9h 59m
Full, 100% of the Moon is Illuminated
Nov 17
Full
Nov 25
Last Quarter
Dec 2
New
Dec 9
First Quarter
Dec 17
Full

Hourly Weather History & Observations

Time (CST) Temp. Windchill Dew Point Humidity Pressure Visibility Wind Dir Wind Speed Gust Speed Precip Events Conditions
12:15 AM 50.0 °F - 33.8 °F 54% 29.32 in 10.0 mi WSW 13.8 mph - N/A   Clear
12:35 AM 51.8 °F - 32.0 °F 47% 29.32 in 10.0 mi WSW 10.4 mph - N/A   Clear
12:55 AM 46.4 °F 40.7 °F 32.0 °F 57% 29.33 in 10.0 mi SSW 12.7 mph - N/A   Clear
1:15 AM 46.4 °F 40.1 °F 32.0 °F 57% 29.32 in 10.0 mi SW 15.0 mph - N/A   Clear
1:35 AM 46.4 °F 40.1 °F 30.2 °F 53% 29.32 in 10.0 mi SW 15.0 mph - N/A   Clear
1:55 AM 46.4 °F 40.1 °F 30.2 °F 53% 29.36 in 10.0 mi WSW 15.0 mph 20.7 mph N/A   Clear
2:15 AM 50.0 °F - 30.2 °F 47% 29.37 in 10.0 mi West 19.6 mph 26.5 mph N/A   Clear
2:35 AM 48.2 °F - 30.2 °F 50% 29.38 in 10.0 mi WNW 21.9 mph 32.2 mph N/A   Clear
2:55 AM 46.4 °F 37.4 °F 30.2 °F 53% 29.41 in 10.0 mi NW 28.8 mph 38.0 mph N/A   Clear
3:15 AM 46.4 °F 38.1 °F 30.2 °F 53% 29.45 in 10.0 mi NW 24.2 mph 36.8 mph N/A   Clear
3:35 AM 48.2 °F - 32.0 °F 54% 29.47 in 10.0 mi NW 25.3 mph 36.8 mph N/A   Clear
3:55 AM 48.2 °F - 33.8 °F 58% 29.47 in 10.0 mi NNW 24.2 mph 31.1 mph N/A   Clear
4:15 AM 48.2 °F - 33.8 °F 58% 29.47 in 10.0 mi NNW 20.7 mph - N/A   Clear
4:35 AM 48.2 °F - 33.8 °F 58% 29.50 in 10.0 mi NW 16.1 mph 21.9 mph N/A   Clear
4:55 AM 48.2 °F - 33.8 °F 58% 29.52 in 10.0 mi NW 11.5 mph - N/A   Clear
5:15 AM 44.6 °F 39.2 °F 32.0 °F 61% 29.53 in 10.0 mi WNW 10.4 mph - N/A   Clear
5:35 AM 42.8 °F 35.8 °F 32.0 °F 66% 29.55 in 10.0 mi WNW 13.8 mph - N/A   Clear
5:55 AM 42.8 °F 36.2 °F 32.0 °F 66% 29.56 in 10.0 mi West 12.7 mph - N/A   Clear
6:15 AM 42.8 °F 36.6 °F 32.0 °F 66% 29.56 in 10.0 mi WNW 11.5 mph - N/A   Clear
6:35 AM 42.8 °F 36.6 °F 32.0 °F 66% 29.58 in 10.0 mi WNW 11.5 mph - N/A   Clear
6:55 AM 42.8 °F 35.8 °F 30.2 °F 61% 29.60 in 10.0 mi WNW 13.8 mph - N/A   Clear
7:15 AM 42.8 °F 35.4 °F 30.2 °F 61% 29.62 in 10.0 mi WNW 15.0 mph - N/A   Clear
7:35 AM 42.8 °F 35.8 °F 28.4 °F 57% 29.64 in 10.0 mi WNW 13.8 mph - N/A   Clear
7:55 AM 42.8 °F 36.6 °F 28.4 °F 57% 29.66 in 10.0 mi NW 11.5 mph - N/A   Clear
8:15 AM 44.6 °F 38.4 °F 28.4 °F 53% 29.68 in 10.0 mi WNW 12.7 mph - N/A   Clear
8:35 AM 46.4 °F 40.1 °F 30.2 °F 53% 29.69 in 10.0 mi WNW 15.0 mph - N/A   Clear
8:55 AM 50.0 °F - 28.4 °F 43% 29.70 in 10.0 mi WNW 19.6 mph 25.3 mph N/A   Clear
9:15 AM 51.8 °F - 26.6 °F 38% 29.72 in 10.0 mi WNW 23.0 mph 31.1 mph N/A   Clear
9:35 AM 53.6 °F - 24.8 °F 33% 29.74 in 10.0 mi WNW 26.5 mph 38.0 mph N/A   Clear
9:55 AM 55.4 °F - 21.2 °F 26% 29.74 in 10.0 mi WNW 36.8 mph 41.4 mph N/A   Clear
10:15 AM 55.4 °F - 19.4 °F 25% 29.74 in 10.0 mi NW 33.4 mph 47.2 mph N/A   Clear
10:35 AM 55.4 °F - 15.8 °F 21% 29.77 in 6.0 mi WNW 41.4 mph 54.1 mph N/A   Partly Cloudy
10:55 AM 57.2 °F - 15.8 °F 20% 29.79 in 10.0 mi NW 29.9 mph 43.7 mph N/A   Clear
11:15 AM 57.2 °F - 12.2 °F 17% 29.80 in 10.0 mi NW 36.8 mph 47.2 mph N/A   Clear
11:35 AM 57.2 °F - 12.2 °F 17% 29.80 in 9.0 mi NW 34.5 mph 44.9 mph N/A   Clear
11:55 AM 57.2 °F - 14.0 °F 18% 29.81 in 10.0 mi NW 34.5 mph 44.9 mph N/A   Clear
12:15 PM 57.2 °F - 12.2 °F 17% 29.82 in 10.0 mi NW 31.1 mph 47.2 mph N/A   Clear
12:35 PM 57.2 °F - 12.2 °F 17% 29.82 in 10.0 mi WNW 29.9 mph 44.9 mph N/A   Clear
12:55 PM 57.2 °F - 12.2 °F 17% 29.83 in 10.0 mi NW 28.8 mph 40.3 mph N/A   Clear
1:15 PM 57.2 °F - 12.2 °F 17% 29.83 in 10.0 mi NW 35.7 mph 47.2 mph N/A   Clear
1:35 PM 57.2 °F - 12.2 °F 17% 29.85 in 10.0 mi NW 31.1 mph 46.0 mph N/A   Clear
1:55 PM 57.2 °F - 10.4 °F 16% 29.86 in 10.0 mi NW 31.1 mph 47.2 mph N/A   Clear
2:15 PM 57.2 °F - 12.2 °F 17% 29.88 in 10.0 mi NW 31.1 mph 40.3 mph N/A   Clear
2:35 PM 57.2 °F - 12.2 °F 17% 29.89 in 10.0 mi NW 28.8 mph 35.7 mph N/A   Clear
2:55 PM 57.2 °F - 12.2 °F 17% 29.90 in 10.0 mi NW 25.3 mph 36.8 mph N/A   Clear
3:15 PM 57.2 °F - 12.2 °F 17% 29.90 in 10.0 mi WNW 28.8 mph 34.5 mph N/A   Clear
3:35 PM 55.4 °F - 12.2 °F 18% 29.92 in 10.0 mi NW 23.0 mph 31.1 mph N/A   Clear
3:55 PM 55.4 °F - 12.2 °F 18% 29.94 in 10.0 mi WNW 21.9 mph 31.1 mph N/A   Clear
4:15 PM 55.4 °F - 12.2 °F 18% 29.95 in 10.0 mi NW 20.7 mph 31.1 mph N/A   Clear
4:35 PM 55.4 °F - 12.2 °F 18% 29.96 in 10.0 mi NW 18.4 mph 26.5 mph N/A   Clear
4:55 PM 53.6 °F - 12.2 °F 19% 29.97 in 10.0 mi NW 19.6 mph 26.5 mph N/A   Clear
5:15 PM 51.8 °F - 12.2 °F 21% 29.99 in 10.0 mi NNW 15.0 mph - N/A   Clear
5:35 PM 51.8 °F - 12.2 °F 21% 30.00 in 10.0 mi NNW 12.7 mph - N/A   Clear
5:55 PM 48.2 °F - 12.2 °F 24% 30.01 in 10.0 mi NW 9.2 mph - N/A   Clear
6:15 PM 46.4 °F 41.9 °F 12.2 °F 25% 30.03 in 10.0 mi NW 9.2 mph - N/A   Clear
6:35 PM 46.4 °F 42.4 °F 14.0 °F 27% 30.04 in 10.0 mi NW 8.1 mph - N/A   Clear
6:55 PM 37.4 °F 32.1 °F 12.2 °F 36% 30.06 in 10.0 mi West 6.9 mph - N/A   Clear
7:15 PM 37.4 °F 32.8 °F 15.8 °F 41% 30.07 in 10.0 mi WNW 5.8 mph - N/A   Clear
7:35 PM 37.4 °F 32.8 °F 15.8 °F 41% 30.08 in 10.0 mi West 5.8 mph - N/A   Clear
7:55 PM 35.6 °F 28.6 °F 15.8 °F 44% 30.09 in 10.0 mi NW 9.2 mph - N/A   Clear
8:15 PM 35.6 °F 30.7 °F 15.8 °F 44% 30.09 in 10.0 mi NNW 5.8 mph - N/A   Clear
8:35 PM 35.6 °F 29.9 °F 15.8 °F 44% 30.11 in 10.0 mi West 6.9 mph - N/A   Clear
8:55 PM 32.0 °F 26.4 °F 15.8 °F 51% 30.12 in 10.0 mi WNW 5.8 mph - N/A   Clear
9:15 PM 35.6 °F 30.7 °F 17.6 °F 48% 30.13 in 10.0 mi NW 5.8 mph - N/A   Clear
9:35 PM 33.8 °F - 15.8 °F 48% 30.14 in 10.0 mi Calm Calm - N/A   Clear
9:55 PM 32.0 °F 26.4 °F 15.8 °F 51% 30.13 in 10.0 mi North 5.8 mph - N/A   Clear
10:15 PM 30.2 °F 22.6 °F 17.6 °F 60% 30.12 in 10.0 mi North 8.1 mph - N/A   Clear
10:35 PM 33.8 °F 27.0 °F 15.8 °F 48% 30.12 in 10.0 mi North 8.1 mph - N/A   Clear
10:55 PM 28.4 °F 22.2 °F 15.8 °F 59% 30.12 in 10.0 mi West 5.8 mph - N/A   Clear
11:15 PM 28.4 °F 22.2 °F 17.6 °F 64% 30.11 in 10.0 mi NNW 5.8 mph - N/A   Clear
11:35 PM 30.2 °F 24.3 °F 17.6 °F 60% 30.11 in 10.0 mi North 5.8 mph - N/A   Clear
11:55 PM 28.4 °F 23.3 °F 17.6 °F 64% 30.11 in 10.0 mi NW 4.6 mph - N/A   Clear